createdAt,value
2023-05-18T00:00:16.479Z,103174.75
2023-05-18T00:02:43.307Z,103182.66
2023-05-18T00:05:12.437Z,103175.59
2023-05-18T00:07:40.920Z,103165.03
2023-05-18T00:10:08.220Z,103174.66
2023-05-18T00:12:34.664Z,103168.56
2023-05-18T00:15:01.156Z,103174.81
2023-05-18T00:17:29.034Z,103187.13
2023-05-18T00:19:58.508Z,103165.22
2023-05-18T00:22:26.404Z,103180.78
2023-05-18T00:24:53.039Z,103174.69
2023-05-18T00:27:19.511Z,103190.47
2023-05-18T00:29:46.214Z,103177.28
2023-05-18T00:32:12.872Z,103153.88
2023-05-18T00:34:39.301Z,103164.22
2023-05-18T00:37:05.950Z,103153.06
2023-05-18T00:39:32.418Z,103176.53
2023-05-18T00:41:58.953Z,103179.19
2023-05-18T00:44:25.659Z,103183.63
2023-05-18T00:46:52.176Z,103175.78
2023-05-18T00:49:19.065Z,103162.03
2023-05-18T00:51:45.812Z,103177.53
2023-05-18T00:54:12.410Z,103178.28
2023-05-18T00:56:42.107Z,103186.34
2023-05-18T00:59:13.936Z,103186.41
2023-05-18T01:01:46.215Z,103157.66
2023-05-18T01:04:16.253Z,103177.75
2023-05-18T01:06:42.975Z,103183.03
2023-05-18T01:09:12.149Z,103189.22
2023-05-18T01:12:04.637Z,103190.09
2023-05-18T01:14:37.294Z,103161.38
2023-05-18T01:17:23.655Z,103165.84
2023-05-18T01:20:06.949Z,103165.81
2023-05-18T01:22:56.360Z,103192.94
2023-05-18T01:25:47.105Z,103194.75
2023-05-18T01:28:20.302Z,103178.19
2023-05-18T01:30:47.753Z,103191.28
2023-05-18T01:33:14.757Z,103190.41
2023-05-18T01:35:50.565Z,103165.03
2023-05-18T01:38:26.277Z,103181.63
2023-05-18T01:41:11.380Z,103191.25
2023-05-18T01:43:47.031Z,103189.31
2023-05-18T01:46:35.989Z,103184.88
2023-05-18T01:49:11.211Z,103196.38
2023-05-18T01:51:44.480Z,103179.75
2023-05-18T01:54:12.841Z,103193.56
2023-05-18T01:56:40.762Z,103196.34
2023-05-18T01:59:08.287Z,103184.34
2023-05-18T02:01:34.815Z,103195.53
2023-05-18T02:04:01.648Z,103179.81
2023-05-18T02:06:28.672Z,103207.06
2023-05-18T02:08:55.378Z,103174.97
2023-05-18T02:11:21.900Z,103204.47
2023-05-18T02:13:48.400Z,103187.00
2023-05-18T02:16:14.964Z,103196.59
2023-05-18T02:18:43.002Z,103195.72
2023-05-18T02:21:10.507Z,103198.47
2023-05-18T02:23:37.038Z,103188.06
2023-05-18T02:26:03.592Z,103192.28
2023-05-18T02:28:30.363Z,103191.41
2023-05-18T02:31:11.958Z,103195.81
2023-05-18T02:33:41.646Z,103173.22
2023-05-18T02:36:09.946Z,103202.91
2023-05-18T02:38:38.481Z,103188.09
2023-05-18T02:41:05.700Z,103196.81
2023-05-18T02:43:33.232Z,103194.25
2023-05-18T02:45:59.969Z,103185.50
2023-05-18T02:48:26.934Z,103177.69
2023-05-18T02:50:53.855Z,103196.97
2023-05-18T02:53:21.166Z,103176.03
2023-05-18T02:55:48.679Z,103182.06
2023-05-18T02:58:16.069Z,103191.66
2023-05-18T03:00:42.685Z,103184.72
2023-05-18T03:03:10.947Z,103196.19
2023-05-18T03:05:37.686Z,103175.25
2023-05-18T03:08:05.150Z,103183.88
2023-05-18T03:10:32.281Z,103165.72
2023-05-18T03:12:58.752Z,103184.09
2023-05-18T03:15:25.202Z,103178.88
2023-05-18T03:17:51.953Z,103198.25
2023-05-18T03:20:19.823Z,103197.31
2023-05-18T03:22:46.424Z,103181.59
2023-05-18T03:25:12.926Z,103190.44
2023-05-18T03:27:39.395Z,103192.28
2023-05-18T03:30:06.492Z,103177.50
2023-05-18T03:32:33.974Z,103187.84
2023-05-18T03:35:01.257Z,103192.25
2023-05-18T03:37:30.772Z,103186.97
2023-05-18T03:40:11.266Z,103192.22
2023-05-18T03:42:39.054Z,103199.22
2023-05-18T03:45:06.306Z,103197.47
2023-05-18T03:47:32.965Z,103193.16
2023-05-18T03:49:59.904Z,103207.19
2023-05-18T03:52:26.388Z,103195.09
2023-05-18T03:54:52.940Z,103180.28
2023-05-18T03:57:19.815Z,103195.09
2023-05-18T03:59:47.860Z,103205.56
2023-05-18T04:02:16.566Z,103209.84
2023-05-18T04:04:45.966Z,103209.88
2023-05-18T04:07:15.416Z,103200.25
2023-05-18T04:09:43.691Z,103206.50
2023-05-18T04:12:10.723Z,103216.19
2023-05-18T04:14:37.290Z,103217.97
2023-05-18T04:17:05.076Z,103188.19
2023-05-18T04:19:32.947Z,103212.56
2023-05-18T04:22:00.017Z,103221.25
2023-05-18T04:24:26.997Z,103205.41
2023-05-18T04:26:53.684Z,103215.78
2023-05-18T04:29:21.221Z,103216.72
2023-05-18T04:31:48.158Z,103218.50
2023-05-18T04:34:17.876Z,103207.16
2023-05-18T04:36:44.714Z,103218.53
2023-05-18T04:39:12.199Z,103222.09
2023-05-18T04:41:42.144Z,103219.41
2023-05-18T04:44:09.568Z,103227.25
2023-05-18T04:46:39.681Z,103222.75
2023-05-18T04:49:06.320Z,103229.75
2023-05-18T04:51:34.623Z,103227.94
2023-05-18T04:54:03.384Z,103216.50
2023-05-18T04:56:29.894Z,103209.50
2023-05-18T04:58:59.347Z,103233.03
2023-05-18T05:01:26.112Z,103234.72
2023-05-18T05:03:52.755Z,103225.75
2023-05-18T05:06:19.318Z,103226.66
2023-05-18T05:08:46.073Z,103231.84
2023-05-18T05:11:12.633Z,103226.72
2023-05-18T05:13:39.266Z,103235.38
2023-05-18T05:16:06.312Z,103235.31
2023-05-18T05:18:32.965Z,103238.75
2023-05-18T05:20:59.654Z,103216.13
2023-05-18T05:23:26.296Z,103239.44
2023-05-18T05:25:52.965Z,103246.34
2023-05-18T05:28:19.411Z,103237.44
2023-05-18T05:30:46.037Z,103242.59
2023-05-18T05:33:12.536Z,103233.66
2023-05-18T05:35:41.504Z,103231.81
2023-05-18T05:38:08.650Z,103240.31
2023-05-18T05:40:35.112Z,103231.41
2023-05-18T05:43:01.635Z,103230.50
2023-05-18T05:45:28.796Z,103245.16
2023-05-18T05:47:55.861Z,103249.31
2023-05-18T05:50:22.445Z,103233.34
2023-05-18T05:52:49.026Z,103251.69
2023-05-18T05:55:15.753Z,103251.53
2023-05-18T05:57:42.936Z,103247.69
2023-05-18T06:00:11.280Z,103254.59
2023-05-18T06:02:38.058Z,103250.19
2023-05-18T06:05:06.261Z,103239.69
2023-05-18T06:07:33.123Z,103253.63
2023-05-18T06:09:59.580Z,103254.34
2023-05-18T06:12:26.149Z,103235.81
2023-05-18T06:14:54.329Z,103254.88
2023-05-18T06:17:21.095Z,103245.56
2023-05-18T06:19:47.529Z,103255.47
2023-05-18T06:22:14.075Z,103255.00
2023-05-18T06:24:40.542Z,103247.72
2023-05-18T06:27:08.467Z,103265.81
2023-05-18T06:29:34.939Z,103266.25
2023-05-18T06:32:02.556Z,103260.59
2023-05-18T06:34:29.111Z,103256.75
2023-05-18T06:36:56.108Z,103268.34
2023-05-18T06:39:22.584Z,103249.88
2023-05-18T06:41:51.927Z,103262.09
2023-05-18T06:44:18.344Z,103267.53
2023-05-18T06:46:47.052Z,103276.59
2023-05-18T06:49:13.547Z,103269.88
2023-05-18T06:51:40.082Z,103270.88
2023-05-18T06:54:06.654Z,103273.06
2023-05-18T06:56:33.114Z,103259.28
2023-05-18T06:59:00.472Z,103273.34
2023-05-18T07:01:27.186Z,103271.59
2023-05-18T07:03:53.710Z,103279.44
2023-05-18T07:06:20.668Z,103275.25
2023-05-18T07:08:47.830Z,103278.72
2023-05-18T07:11:15.067Z,103288.97
2023-05-18T07:13:42.660Z,103285.97
2023-05-18T07:16:09.253Z,103294.38
2023-05-18T07:18:35.810Z,103278.22
2023-05-18T07:21:02.300Z,103281.66
2023-05-18T07:23:29.091Z,103281.75
2023-05-18T07:25:57.347Z,103285.41
2023-05-18T07:28:23.723Z,103291.84
2023-05-18T07:30:50.264Z,103295.41
2023-05-18T07:33:16.882Z,103288.94
2023-05-18T07:35:43.478Z,103280.25
2023-05-18T07:38:09.952Z,103294.31
2023-05-18T07:40:36.426Z,103285.22
2023-05-18T07:43:02.857Z,103295.50
2023-05-18T07:45:29.654Z,103298.78
2023-05-18T07:47:57.644Z,103299.41
2023-05-18T07:50:24.294Z,103297.63
2023-05-18T07:52:50.766Z,103289.13
2023-05-18T07:55:17.496Z,103296.75
2023-05-18T07:57:44.152Z,103280.28
2023-05-18T08:00:11.247Z,103302.78
2023-05-18T08:02:38.709Z,103302.88
2023-05-18T08:05:05.975Z,103294.34
2023-05-18T08:07:33.841Z,103280.53
2023-05-18T08:10:00.510Z,103303.94
2023-05-18T08:12:27.008Z,103287.94
2023-05-18T08:14:53.707Z,103290.47
2023-05-18T08:17:20.187Z,103291.44
2023-05-18T08:19:47.864Z,103295.97
2023-05-18T08:22:15.532Z,103297.63
2023-05-18T08:24:44.112Z,103273.44
2023-05-18T08:27:11.342Z,103292.59
2023-05-18T08:29:38.972Z,103292.84
2023-05-18T08:32:07.346Z,103288.44
2023-05-18T08:34:34.727Z,103291.00
2023-05-18T08:37:01.426Z,103289.81
2023-05-18T08:39:31.641Z,103260.16
2023-05-18T08:42:03.809Z,103292.41
2023-05-18T08:44:40.196Z,103287.06
2023-05-18T08:47:11.060Z,103289.38
2023-05-18T08:49:40.490Z,103285.09
2023-05-18T08:52:08.601Z,103296.44
2023-05-18T08:54:37.366Z,103291.16
2023-05-18T08:57:11.951Z,103286.91
2023-05-18T08:59:44.436Z,103286.00
2023-05-18T09:02:11.763Z,103297.75
2023-05-18T09:04:38.849Z,103294.03
2023-05-18T09:07:07.235Z,103284.06
2023-05-18T09:09:35.463Z,103284.94
2023-05-18T09:12:01.888Z,103280.69
2023-05-18T09:14:29.161Z,103266.69
2023-05-18T09:16:55.789Z,103269.16
2023-05-18T09:19:24.619Z,103261.72
2023-05-18T09:21:51.260Z,103271.47
2023-05-18T09:24:19.302Z,103257.06
2023-05-18T09:26:46.255Z,103254.88
2023-05-18T09:29:24.227Z,103259.19
2023-05-18T09:31:51.845Z,103259.28
2023-05-18T09:34:19.371Z,103258.41
2023-05-18T09:36:52.785Z,103241.81
2023-05-18T09:39:19.336Z,103235.38
2023-05-18T09:41:46.093Z,103249.97
2023-05-18T09:44:13.349Z,103240.25
2023-05-18T09:46:40.503Z,103244.94
2023-05-18T09:49:07.986Z,103240.28
2023-05-18T09:51:38.748Z,103225.88
2023-05-18T09:54:08.600Z,103235.13
2023-05-18T09:56:36.682Z,103221.94
2023-05-18T09:59:16.312Z,103247.94
2023-05-18T10:01:56.833Z,103250.03
2023-05-18T10:04:23.825Z,103241.69
2023-05-18T10:06:51.256Z,103240.81
2023-05-18T10:09:18.019Z,103238.75
2023-05-18T10:11:44.547Z,103251.25
2023-05-18T10:14:11.652Z,103245.81
2023-05-18T10:16:38.431Z,103238.75
2023-05-18T10:19:08.805Z,103238.47
2023-05-18T10:21:37.897Z,103245.47
2023-05-18T10:24:08.669Z,103208.88
2023-05-18T10:26:39.010Z,103236.38
2023-05-18T10:29:06.303Z,103231.44
2023-05-18T10:31:35.503Z,103233.00
2023-05-18T10:34:03.932Z,103219.38
2023-05-18T10:36:32.692Z,103234.88
2023-05-18T10:39:00.686Z,103225.84
2023-05-18T10:41:28.350Z,103225.91
2023-05-18T10:43:55.153Z,103225.16
2023-05-18T10:46:26.710Z,103197.00
2023-05-18T10:48:54.866Z,103205.47
2023-05-18T10:51:21.460Z,103217.28
2023-05-18T10:53:48.324Z,103220.56
2023-05-18T10:56:17.758Z,103202.03
2023-05-18T10:58:45.846Z,103199.81
2023-05-18T11:01:13.643Z,103208.63
2023-05-18T11:03:42.149Z,103205.56
2023-05-18T11:06:11.497Z,103200.34
2023-05-18T11:08:46.050Z,103204.53
2023-05-18T11:11:12.598Z,103185.19
2023-05-18T11:13:52.461Z,103203.75
2023-05-18T11:16:20.986Z,103199.34
2023-05-18T11:18:49.800Z,103188.84
2023-05-18T11:21:32.047Z,103204.09
2023-05-18T11:24:18.604Z,103199.16
2023-05-18T11:26:51.081Z,103186.13
2023-05-18T11:29:22.389Z,103192.38
2023-05-18T11:31:55.537Z,103189.56
2023-05-18T11:34:40.102Z,103179.81
2023-05-18T11:37:10.150Z,103195.44
2023-05-18T11:39:44.744Z,103193.50
2023-05-18T11:42:18.804Z,103184.03
2023-05-18T11:44:52.094Z,103167.41
2023-05-18T11:47:18.699Z,103157.97
2023-05-18T11:49:46.885Z,103173.97
2023-05-18T11:52:14.254Z,103174.09
2023-05-18T11:54:49.499Z,103167.41
2023-05-18T11:57:18.576Z,103140.59
2023-05-18T11:59:53.923Z,103160.09
2023-05-18T12:02:24.043Z,103137.47
2023-05-18T12:04:55.350Z,103163.16
2023-05-18T12:07:23.640Z,103154.44
2023-05-18T12:09:52.954Z,103133.03
2023-05-18T12:12:23.997Z,103147.28
2023-05-18T12:14:57.505Z,103144.66
2023-05-18T12:17:37.358Z,103131.78
2023-05-18T12:20:04.804Z,103148.78
2023-05-18T12:22:31.390Z,103137.63
2023-05-18T12:24:57.881Z,103134.59
2023-05-18T12:27:26.707Z,103141.84
2023-05-18T12:29:54.796Z,103150.81
2023-05-18T12:32:21.310Z,103142.47
2023-05-18T12:34:48.244Z,103137.06
2023-05-18T12:37:15.373Z,103134.63
2023-05-18T12:39:41.810Z,103120.19
2023-05-18T12:42:13.645Z,103135.25
2023-05-18T12:44:44.458Z,103124.22
2023-05-18T12:47:14.889Z,103130.78
2023-05-18T12:49:47.989Z,103121.78
2023-05-18T12:52:16.559Z,103105.53
2023-05-18T12:55:01.169Z,103124.50
2023-05-18T12:57:30.570Z,103127.69
2023-05-18T12:59:57.882Z,103121.44
2023-05-18T13:02:31.107Z,103126.00
2023-05-18T13:05:09.754Z,103123.84
2023-05-18T13:07:46.397Z,103117.91
2023-05-18T13:10:16.784Z,103098.47
2023-05-18T13:12:43.188Z,103121.59
2023-05-18T13:15:13.467Z,103111.50
2023-05-18T13:18:00.226Z,103100.38
2023-05-18T13:20:49.640Z,103097.16
2023-05-18T13:23:21.615Z,103110.66
2023-05-18T13:25:49.335Z,103114.09
2023-05-18T13:28:20.610Z,103107.56
2023-05-18T13:30:49.096Z,103105.56
2023-05-18T13:33:17.891Z,103107.03
2023-05-18T13:35:45.455Z,103105.53
2023-05-18T13:38:14.671Z,103107.59
2023-05-18T13:40:42.174Z,103089.84
2023-05-18T13:43:11.226Z,103098.94
2023-05-18T13:45:39.426Z,103084.84
2023-05-18T13:48:09.615Z,103097.72
2023-05-18T13:50:36.730Z,103093.16
2023-05-18T13:53:03.467Z,103076.66
2023-05-18T13:55:30.235Z,103075.63
2023-05-18T13:57:56.929Z,103085.72
2023-05-18T14:00:23.510Z,103070.88
2023-05-18T14:02:50.080Z,103086.44
2023-05-18T14:05:16.627Z,103070.94
2023-05-18T14:07:44.151Z,103074.72
2023-05-18T14:10:12.533Z,103077.69
2023-05-18T14:12:39.366Z,103077.13
2023-05-18T14:15:06.476Z,103066.84
2023-05-18T14:17:34.079Z,103060.41
2023-05-18T14:20:00.785Z,103073.50
2023-05-18T14:22:27.440Z,103073.59
2023-05-18T14:24:54.066Z,103065.84
2023-05-18T14:27:20.683Z,103056.00
2023-05-18T14:29:49.446Z,103057.88
2023-05-18T14:32:16.935Z,103060.78
2023-05-18T14:34:43.474Z,103050.91
2023-05-18T14:37:09.929Z,103059.75
2023-05-18T14:39:36.402Z,103043.63
2023-05-18T14:42:05.502Z,103040.03
2023-05-18T14:44:32.090Z,103024.50
2023-05-18T14:46:58.637Z,103040.66
2023-05-18T14:49:25.408Z,103039.50
2023-05-18T14:51:51.948Z,103037.28
2023-05-18T14:54:19.365Z,103054.28
2023-05-18T14:56:45.990Z,103041.00
2023-05-18T14:59:12.435Z,103041.50
2023-05-18T15:01:39.099Z,103042.44
2023-05-18T15:04:05.758Z,103029.47
2023-05-18T15:06:33.362Z,103031.63
2023-05-18T15:08:59.883Z,103035.84
2023-05-18T15:11:26.628Z,103030.94
2023-05-18T15:13:53.286Z,103032.78
2023-05-18T15:16:19.938Z,103037.44
2023-05-18T15:18:46.908Z,103033.88
2023-05-18T15:21:13.591Z,103027.19
2023-05-18T15:23:42.926Z,103016.13
2023-05-18T15:26:09.501Z,103021.16
2023-05-18T15:28:36.080Z,103024.34
2023-05-18T15:31:02.726Z,103022.75
2023-05-18T15:33:29.163Z,103015.97
2023-05-18T15:35:55.641Z,103014.31
2023-05-18T15:38:22.132Z,103016.25
2023-05-18T15:40:50.285Z,103013.13
2023-05-18T15:43:17.015Z,103011.06
2023-05-18T15:45:43.464Z,103007.16
2023-05-18T15:48:10.027Z,103008.53
2023-05-18T15:50:36.623Z,102994.53
2023-05-18T15:53:03.316Z,103007.16
2023-05-18T15:55:29.756Z,103003.94
2023-05-18T15:57:56.187Z,103003.25
2023-05-18T16:00:24.768Z,103001.44
2023-05-18T16:02:51.298Z,102998.56
2023-05-18T16:05:17.850Z,102998.31
2023-05-18T16:07:46.090Z,103004.84
2023-05-18T16:10:14.264Z,102986.69
2023-05-18T16:12:40.875Z,102995.63
2023-05-18T16:15:07.782Z,103003.66
2023-05-18T16:17:34.411Z,102987.16
2023-05-18T16:20:03.582Z,102985.28
2023-05-18T16:22:30.642Z,102990.13
2023-05-18T16:25:01.112Z,102987.16
2023-05-18T16:27:27.774Z,102965.09
2023-05-18T16:29:54.585Z,102981.50
2023-05-18T16:32:21.092Z,102981.91
2023-05-18T16:34:47.529Z,102987.47
2023-05-18T16:37:14.114Z,102989.28
2023-05-18T16:39:40.616Z,102970.91
2023-05-18T16:42:07.746Z,102974.94
2023-05-18T16:44:35.388Z,102976.56
2023-05-18T16:47:01.893Z,102978.13
2023-05-18T16:49:28.433Z,102972.97
2023-05-18T16:51:54.856Z,102953.09
2023-05-18T16:54:21.413Z,102967.94
2023-05-18T16:56:47.893Z,102972.25
2023-05-18T16:59:14.449Z,102975.94
2023-05-18T17:01:41.627Z,102968.72
2023-05-18T17:04:08.280Z,102964.41
2023-05-18T17:06:34.799Z,102957.50
2023-05-18T17:09:06.131Z,102966.19
2023-05-18T17:11:33.110Z,102962.50
2023-05-18T17:14:01.399Z,102967.75
2023-05-18T17:16:28.439Z,102961.31
2023-05-18T17:18:56.215Z,102962.63
2023-05-18T17:21:24.211Z,102957.22
2023-05-18T17:23:50.791Z,102949.38
2023-05-18T17:26:17.370Z,102962.72
2023-05-18T17:28:43.807Z,102953.22
2023-05-18T17:31:14.528Z,102970.25
2023-05-18T17:33:46.936Z,102965.94
2023-05-18T17:36:17.127Z,102946.00
2023-05-18T17:38:44.728Z,102952.75
2023-05-18T17:41:11.791Z,102966.81
2023-05-18T17:43:38.272Z,102957.38
2023-05-18T17:46:05.100Z,102962.88
2023-05-18T17:48:31.737Z,102968.94
2023-05-18T17:50:58.238Z,102963.44
2023-05-18T17:53:24.771Z,102946.22
2023-05-18T17:55:51.688Z,102960.38
2023-05-18T17:58:18.167Z,102959.50
2023-05-18T18:00:44.618Z,102962.00
2023-05-18T18:03:11.538Z,102955.72
2023-05-18T18:05:38.240Z,102959.34
2023-05-18T18:08:04.798Z,102965.44
2023-05-18T18:10:34.735Z,102966.31
2023-05-18T18:13:01.511Z,102965.16
2023-05-18T18:15:28.921Z,102951.16
2023-05-18T18:17:56.410Z,102965.53
2023-05-18T18:20:23.459Z,102954.38
2023-05-18T18:22:50.006Z,102966.56
2023-05-18T18:25:16.583Z,102949.69
2023-05-18T18:27:43.203Z,102955.97
2023-05-18T18:30:10.703Z,102957.63
2023-05-18T18:32:37.283Z,102966.78
2023-05-18T18:35:04.439Z,102958.09
2023-05-18T18:37:32.129Z,102954.38
2023-05-18T18:39:58.613Z,102962.94
2023-05-18T18:42:25.138Z,102966.94
2023-05-18T18:44:56.479Z,102970.75
2023-05-18T18:47:23.342Z,102958.00
2023-05-18T18:49:49.812Z,102954.66
2023-05-18T18:52:16.474Z,102954.00
2023-05-18T18:54:43.105Z,102972.84
2023-05-18T18:57:11.920Z,102970.59
2023-05-18T18:59:42.856Z,102963.31
2023-05-18T19:02:09.410Z,102967.28
2023-05-18T19:04:37.077Z,102978.03
2023-05-18T19:07:04.726Z,102965.34
2023-05-18T19:09:34.673Z,102969.09
2023-05-18T19:12:01.399Z,102978.97
2023-05-18T19:14:28.212Z,102982.34
2023-05-18T19:16:54.790Z,102972.13
2023-05-18T19:19:21.240Z,102981.28
2023-05-18T19:21:47.833Z,102990.34
2023-05-18T19:24:14.300Z,102978.53
2023-05-18T19:26:40.734Z,102965.81
2023-05-18T19:29:07.378Z,102992.22
2023-05-18T19:31:35.943Z,102989.28
2023-05-18T19:34:02.530Z,102984.22
2023-05-18T19:36:29.074Z,102990.34
2023-05-18T19:38:56.009Z,102993.81
2023-05-18T19:41:24.506Z,102993.00
2023-05-18T19:43:51.344Z,102982.63
2023-05-18T19:46:18.685Z,103008.81
2023-05-18T19:48:45.225Z,103006.00
2023-05-18T19:51:11.944Z,103010.00
2023-05-18T19:53:38.560Z,103007.84
2023-05-18T19:56:05.304Z,103011.63
2023-05-18T19:58:31.826Z,103024.00
2023-05-18T20:00:59.173Z,103019.97
2023-05-18T20:03:26.438Z,103029.75
2023-05-18T20:05:53.205Z,103030.94
2023-05-18T20:08:20.230Z,103039.94
2023-05-18T20:10:47.823Z,103042.03
2023-05-18T20:13:15.515Z,103031.31
2023-05-18T20:15:43.745Z,103036.28
2023-05-18T20:18:11.220Z,103041.72
2023-05-18T20:20:38.677Z,103037.66
2023-05-18T20:23:07.550Z,103035.22
2023-05-18T20:25:35.496Z,103031.22
2023-05-18T20:28:03.445Z,103045.56
2023-05-18T20:30:30.893Z,103038.63
2023-05-18T20:33:00.809Z,103046.69
2023-05-18T20:35:27.894Z,103047.56
2023-05-18T20:37:55.856Z,103037.63
2023-05-18T20:40:23.407Z,103046.19
2023-05-18T20:42:54.206Z,103042.72
2023-05-18T20:45:22.911Z,103042.06
2023-05-18T20:47:52.913Z,103044.84
2023-05-18T20:50:21.073Z,103058.53
2023-05-18T20:52:48.114Z,103057.63
2023-05-18T20:55:15.027Z,103050.63
2023-05-18T20:57:44.580Z,103054.44
2023-05-18T21:00:12.953Z,103058.25
2023-05-18T21:02:45.229Z,103067.75
2023-05-18T21:05:13.039Z,103079.47
2023-05-18T21:07:40.066Z,103069.25
2023-05-18T21:10:08.756Z,103080.78
2023-05-18T21:12:36.670Z,103081.84
2023-05-18T21:15:04.204Z,103082.28
2023-05-18T21:17:32.170Z,103083.38
2023-05-18T21:19:58.938Z,103082.81
2023-05-18T21:22:25.520Z,103086.78
2023-05-18T21:24:52.106Z,103083.19
2023-05-18T21:27:18.726Z,103084.16
2023-05-18T21:29:45.704Z,103080.91
2023-05-18T21:32:12.521Z,103082.88
2023-05-18T21:34:41.225Z,103084.75
2023-05-18T21:37:09.986Z,103083.78
2023-05-18T21:39:36.517Z,103088.63
2023-05-18T21:42:03.858Z,103086.03
2023-05-18T21:44:30.682Z,103075.63
2023-05-18T21:46:57.893Z,103090.84
2023-05-18T21:49:25.048Z,103079.41
2023-05-18T21:51:51.988Z,103079.69
2023-05-18T21:54:18.966Z,103079.00
2023-05-18T21:56:45.848Z,103083.41
2023-05-18T21:59:12.415Z,103078.63
2023-05-18T22:01:39.974Z,103086.00
2023-05-18T22:04:07.726Z,103091.56
2023-05-18T22:06:34.599Z,103087.56
2023-05-18T22:09:01.414Z,103090.97
2023-05-18T22:11:28.033Z,103090.88
2023-05-18T22:13:54.610Z,103086.66
2023-05-18T22:16:21.677Z,103090.94
2023-05-18T22:18:48.196Z,103082.41
2023-05-18T22:21:14.950Z,103091.41
2023-05-18T22:23:41.687Z,103091.47
2023-05-18T22:26:08.416Z,103090.00
2023-05-18T22:28:34.965Z,103097.72
2023-05-18T22:31:01.647Z,103097.88
2023-05-18T22:33:28.552Z,103094.25
2023-05-18T22:35:55.124Z,103092.56
2023-05-18T22:38:21.964Z,103090.19
2023-05-18T22:40:53.777Z,103091.16
2023-05-18T22:43:25.774Z,103093.38
2023-05-18T22:45:52.294Z,103100.53
2023-05-18T22:48:19.150Z,103103.34
2023-05-18T22:50:45.873Z,103094.56
2023-05-18T22:53:12.642Z,103097.94
2023-05-18T22:55:39.412Z,103090.91
2023-05-18T22:58:05.949Z,103097.25
2023-05-18T23:00:33.227Z,103093.19
2023-05-18T23:03:00.186Z,103093.34
2023-05-18T23:05:28.031Z,103102.91
2023-05-18T23:07:57.727Z,103100.25
2023-05-18T23:10:26.688Z,103095.28
2023-05-18T23:12:55.679Z,103091.75
2023-05-18T23:15:23.032Z,103095.47
2023-05-18T23:17:50.220Z,103093.44
2023-05-18T23:20:17.205Z,103091.78
2023-05-18T23:22:44.783Z,103092.88
2023-05-18T23:25:11.817Z,103092.75
2023-05-18T23:27:38.577Z,103093.69
2023-05-18T23:30:06.208Z,103092.19
2023-05-18T23:32:33.734Z,103093.00
2023-05-18T23:35:01.095Z,103086.06
2023-05-18T23:37:29.231Z,103085.19
2023-05-18T23:39:56.692Z,103089.00
2023-05-18T23:42:24.656Z,103093.38
2023-05-18T23:44:51.958Z,103088.09
2023-05-18T23:47:19.056Z,103090.63
2023-05-18T23:49:46.993Z,103092.22
2023-05-18T23:52:14.781Z,103092.28
2023-05-18T23:54:42.004Z,103088.78
2023-05-18T23:57:09.276Z,103088.84
2023-05-18T23:59:37.051Z,103086.19
